sensor_id;sensor_type;location;lat;lon;timestamp;temperature;humidity
40323;DHT22;26030;51.164;17.100;2022-09-03T00:08:03;23.40;55.80
40323;DHT22;26030;51.164;17.100;2022-09-03T00:13:15;23.40;55.90
40323;DHT22;26030;51.164;17.100;2022-09-03T00:18:26;23.40;55.80
40323;DHT22;26030;51.164;17.100;2022-09-03T00:23:41;23.40;55.90
40323;DHT22;26030;51.164;17.100;2022-09-03T00:29:11;23.30;56.10
40323;DHT22;26030;51.164;17.100;2022-09-03T00:34:24;23.30;55.80
40323;DHT22;26030;51.164;17.100;2022-09-03T00:39:31;23.30;55.80
40323;DHT22;26030;51.164;17.100;2022-09-03T00:55:11;23.30;55.70
40323;DHT22;26030;51.164;17.100;2022-09-03T01:00:19;23.30;55.70
40323;DHT22;26030;51.164;17.100;2022-09-03T01:05:38;23.30;55.60
40323;DHT22;26030;51.164;17.100;2022-09-03T01:10:52;23.20;55.80
40323;DHT22;26030;51.164;17.100;2022-09-03T01:21:35;23.20;55.40
40323;DHT22;26030;51.164;17.100;2022-09-03T01:27:12;23.20;55.40
40323;DHT22;26030;51.164;17.100;2022-09-03T01:32:35;23.20;55.20
40323;DHT22;26030;51.164;17.100;2022-09-03T01:38:09;23.20;56.00
40323;DHT22;26030;51.164;17.100;2022-09-03T01:43:28;23.20;55.20
40323;DHT22;26030;51.164;17.100;2022-09-03T01:49:00;23.20;55.10
40323;DHT22;26030;51.164;17.100;2022-09-03T01:54:22;23.20;55.40
40323;DHT22;26030;51.164;17.100;2022-09-03T01:59:27;23.20;55.70
40323;DHT22;26030;51.164;17.100;2022-09-03T02:05:01;23.10;55.50
40323;DHT22;26030;51.164;17.100;2022-09-03T02:10:16;23.10;55.50
40323;DHT22;26030;51.164;17.100;2022-09-03T02:15:23;23.10;55.50
40323;DHT22;26030;51.164;17.100;2022-09-03T02:20:28;23.10;55.40
40323;DHT22;26030;51.164;17.100;2022-09-03T02:25:37;23.10;56.00
40323;DHT22;26030;51.164;17.100;2022-09-03T02:30:44;23.00;55.50
40323;DHT22;26030;51.164;17.100;2022-09-03T02:35:48;23.00;55.50
40323;DHT22;26030;51.164;17.100;2022-09-03T02:40:53;23.00;55.70
40323;DHT22;26030;51.164;17.100;2022-09-03T02:45:59;23.00;55.50
40323;DHT22;26030;51.164;17.100;2022-09-03T02:51:05;23.00;55.50
40323;DHT22;26030;51.164;17.100;2022-09-03T02:56:16;23.00;55.30
40323;DHT22;26030;51.164;17.100;2022-09-03T03:01:20;23.00;55.50
40323;DHT22;26030;51.164;17.100;2022-09-03T03:06:26;23.00;55.80
40323;DHT22;26030;51.164;17.100;2022-09-03T03:11:30;23.00;55.30
40323;DHT22;26030;51.164;17.100;2022-09-03T03:16:34;22.90;55.40
40323;DHT22;26030;51.164;17.100;2022-09-03T03:21:37;22.90;55.50
40323;DHT22;26030;51.164;17.100;2022-09-03T03:26:42;22.90;55.40
40323;DHT22;26030;51.164;17.100;2022-09-03T03:31:46;22.90;55.40
40323;DHT22;26030;51.164;17.100;2022-09-03T03:36:49;22.90;55.40
40323;DHT22;26030;51.164;17.100;2022-09-03T03:41:53;22.90;55.50
40323;DHT22;26030;51.164;17.100;2022-09-03T03:46:58;22.90;55.40
40323;DHT22;26030;51.164;17.100;2022-09-03T03:52:02;22.90;55.30
40323;DHT22;26030;51.164;17.100;2022-09-03T03:57:06;22.90;55.50
40323;DHT22;26030;51.164;17.100;2022-09-03T04:02:10;22.90;55.50
40323;DHT22;26030;51.164;17.100;2022-09-03T04:07:15;22.80;55.70
40323;DHT22;26030;51.164;17.100;2022-09-03T04:12:18;22.80;55.40
40323;DHT22;26030;51.164;17.100;2022-09-03T04:17:22;22.80;55.50
40323;DHT22;26030;51.164;17.100;2022-09-03T04:22:27;22.80;55.50
40323;DHT22;26030;51.164;17.100;2022-09-03T04:27:31;22.80;55.40
40323;DHT22;26030;51.164;17.100;2022-09-03T04:32:35;22.80;55.40
40323;DHT22;26030;51.164;17.100;2022-09-03T04:37:58;22.80;55.40
40323;DHT22;26030;51.164;17.100;2022-09-03T04:43:02;22.80;55.40
40323;DHT22;26030;51.164;17.100;2022-09-03T04:48:06;22.80;55.40
40323;DHT22;26030;51.164;17.100;2022-09-03T04:53:12;22.70;55.40
40323;DHT22;26030;51.164;17.100;2022-09-03T04:58:16;22.70;55.40
40323;DHT22;26030;51.164;17.100;2022-09-03T05:03:20;22.80;55.50
40323;DHT22;26030;51.164;17.100;2022-09-03T05:08:24;22.70;55.40
40323;DHT22;26030;51.164;17.100;2022-09-03T05:13:29;22.70;55.40
40323;DHT22;26030;51.164;17.100;2022-09-03T05:18:33;22.70;55.40
40323;DHT22;26030;51.164;17.100;2022-09-03T05:23:38;22.70;55.40
40323;DHT22;26030;51.164;17.100;2022-09-03T05:28:44;22.70;55.40
40323;DHT22;26030;51.164;17.100;2022-09-03T05:33:50;22.70;55.40
40323;DHT22;26030;51.164;17.100;2022-09-03T05:38:55;22.70;55.50
40323;DHT22;26030;51.164;17.100;2022-09-03T05:44:00;22.70;55.30
40323;DHT22;26030;51.164;17.100;2022-09-03T05:49:06;22.70;55.30
40323;DHT22;26030;51.164;17.100;2022-09-03T05:54:11;22.70;55.20
40323;DHT22;26030;51.164;17.100;2022-09-03T05:59:21;22.70;55.20
40323;DHT22;26030;51.164;17.100;2022-09-03T06:04:30;22.70;55.20
40323;DHT22;26030;51.164;17.100;2022-09-03T06:09:35;22.70;55.20
40323;DHT22;26030;51.164;17.100;2022-09-03T06:14:38;22.70;55.20
40323;DHT22;26030;51.164;17.100;2022-09-03T06:19:42;22.70;55.10
40323;DHT22;26030;51.164;17.100;2022-09-03T06:24:46;22.70;55.10
40323;DHT22;26030;51.164;17.100;2022-09-03T06:29:50;22.70;55.00
40323;DHT22;26030;51.164;17.100;2022-09-03T06:34:56;22.70;55.00
40323;DHT22;26030;51.164;17.100;2022-09-03T06:40:01;22.70;54.90
40323;DHT22;26030;51.164;17.100;2022-09-03T06:45:06;22.70;54.90
40323;DHT22;26030;51.164;17.100;2022-09-03T06:50:15;22.70;55.20
40323;DHT22;26030;51.164;17.100;2022-09-03T06:55:26;22.70;54.90
40323;DHT22;26030;51.164;17.100;2022-09-03T07:00:29;22.70;54.80
40323;DHT22;26030;51.164;17.100;2022-09-03T07:05:33;22.80;54.80
40323;DHT22;26030;51.164;17.100;2022-09-03T07:10:37;22.80;54.80
40323;DHT22;26030;51.164;17.100;2022-09-03T07:15:42;22.80;54.70
40323;DHT22;26030;51.164;17.100;2022-09-03T07:20:49;22.80;54.80
40323;DHT22;26030;51.164;17.100;2022-09-03T07:25:54;22.80;54.60
40323;DHT22;26030;51.164;17.100;2022-09-03T07:31:06;22.80;54.60
40323;DHT22;26030;51.164;17.100;2022-09-03T07:36:15;22.80;54.50
40323;DHT22;26030;51.164;17.100;2022-09-03T07:41:24;22.80;54.50
40323;DHT22;26030;51.164;17.100;2022-09-03T07:46:35;22.90;54.80
40323;DHT22;26030;51.164;17.100;2022-09-03T07:51:45;22.90;54.40
40323;DHT22;26030;51.164;17.100;2022-09-03T07:56:53;22.90;54.50
40323;DHT22;26030;51.164;17.100;2022-09-03T08:02:02;22.90;54.40
40323;DHT22;26030;51.164;17.100;2022-09-03T08:07:12;22.90;54.50
40323;DHT22;26030;51.164;17.100;2022-09-03T08:12:17;22.90;54.30
40323;DHT22;26030;51.164;17.100;2022-09-03T08:17:25;22.90;54.60
40323;DHT22;26030;51.164;17.100;2022-09-03T08:22:34;23.00;54.50
40323;DHT22;26030;51.164;17.100;2022-09-03T08:27:39;23.00;55.00
40323;DHT22;26030;51.164;17.100;2022-09-03T08:32:43;23.00;55.00
40323;DHT22;26030;51.164;17.100;2022-09-03T08:37:50;23.00;54.40
40323;DHT22;26030;51.164;17.100;2022-09-03T08:43:05;23.10;54.50
40323;DHT22;26030;51.164;17.100;2022-09-03T08:48:27;23.10;54.40
40323;DHT22;26030;51.164;17.100;2022-09-03T08:53:47;23.10;54.20
40323;DHT22;26030;51.164;17.100;2022-09-03T08:58:57;23.10;54.20
40323;DHT22;26030;51.164;17.100;2022-09-03T09:15:27;23.20;54.40
40323;DHT22;26030;51.164;17.100;2022-09-03T09:25:55;23.30;54.10
40323;DHT22;26030;51.164;17.100;2022-09-03T09:31:02;23.30;54.00
40323;DHT22;26030;51.164;17.100;2022-09-03T09:36:11;23.40;54.00
40323;DHT22;26030;51.164;17.100;2022-09-03T09:41:21;23.40;54.40
40323;DHT22;26030;51.164;17.100;2022-09-03T09:46:35;23.50;54.00
40323;DHT22;26030;51.164;17.100;2022-09-03T09:51:41;23.50;53.50
40323;DHT22;26030;51.164;17.100;2022-09-03T09:56:57;23.50;53.80
40323;DHT22;26030;51.164;17.100;2022-09-03T10:07:31;23.70;53.60
40323;DHT22;26030;51.164;17.100;2022-09-03T10:12:38;23.70;53.50
40323;DHT22;26030;51.164;17.100;2022-09-03T10:23:01;23.80;53.30
40323;DHT22;26030;51.164;17.100;2022-09-03T10:28:12;23.80;53.20
40323;DHT22;26030;51.164;17.100;2022-09-03T10:33:18;23.90;53.10
40323;DHT22;26030;51.164;17.100;2022-09-03T10:38:29;23.90;53.00
40323;DHT22;26030;51.164;17.100;2022-09-03T10:49:09;24.00;52.90
40323;DHT22;26030;51.164;17.100;2022-09-03T10:59:55;24.10;53.10
40323;DHT22;26030;51.164;17.100;2022-09-03T11:05:18;24.10;52.70
40323;DHT22;26030;51.164;17.100;2022-09-03T11:10:43;24.20;52.80
40323;DHT22;26030;51.164;17.100;2022-09-03T11:16:10;24.20;52.80
40323;DHT22;26030;51.164;17.100;2022-09-03T11:21:36;24.20;52.70
40323;DHT22;26030;51.164;17.100;2022-09-03T11:26:54;24.30;52.70
40323;DHT22;26030;51.164;17.100;2022-09-03T11:32:17;24.30;52.80
40323;DHT22;26030;51.164;17.100;2022-09-03T11:37:43;24.30;52.70
40323;DHT22;26030;51.164;17.100;2022-09-03T11:43:28;24.30;53.30
40323;DHT22;26030;51.164;17.100;2022-09-03T11:59:32;24.40;53.00
40323;DHT22;26030;51.164;17.100;2022-09-03T12:20:39;24.40;52.50
40323;DHT22;26030;51.164;17.100;2022-09-03T12:25:44;24.40;52.50
40323;DHT22;26030;51.164;17.100;2022-09-03T12:30:51;24.50;52.80
40323;DHT22;26030;51.164;17.100;2022-09-03T12:35:56;24.40;52.50
40323;DHT22;26030;51.164;17.100;2022-09-03T12:41:02;24.40;52.70
40323;DHT22;26030;51.164;17.100;2022-09-03T12:46:28;24.40;52.80
40323;DHT22;26030;51.164;17.100;2022-09-03T12:52:32;24.30;52.40
40323;DHT22;26030;51.164;17.100;2022-09-03T12:58:21;24.30;53.10
40323;DHT22;26030;51.164;17.100;2022-09-03T13:08:59;24.40;51.70
40323;DHT22;26030;51.164;17.100;2022-09-03T13:14:10;24.40;52.80
40323;DHT22;26030;51.164;17.100;2022-09-03T13:19:29;24.40;51.90
40323;DHT22;26030;51.164;17.100;2022-09-03T13:30:14;24.30;52.00
40323;DHT22;26030;51.164;17.100;2022-09-03T13:35:31;24.30;51.50
40323;DHT22;26030;51.164;17.100;2022-09-03T13:40:51;24.30;51.40
40323;DHT22;26030;51.164;17.100;2022-09-03T13:46:07;24.40;51.50
40323;DHT22;26030;51.164;17.100;2022-09-03T14:08:11;24.40;52.30
40323;DHT22;26030;51.164;17.100;2022-09-03T14:18:50;24.40;52.40
40323;DHT22;26030;51.164;17.100;2022-09-03T14:24:20;24.40;51.50
40323;DHT22;26030;51.164;17.100;2022-09-03T14:29:27;24.30;51.60
40323;DHT22;26030;51.164;17.100;2022-09-03T14:40:18;24.30;52.20
40323;DHT22;26030;51.164;17.100;2022-09-03T14:51:38;24.30;51.60
40323;DHT22;26030;51.164;17.100;2022-09-03T15:13:07;24.20;52.00
40323;DHT22;26030;51.164;17.100;2022-09-03T15:18:31;24.20;52.20
40323;DHT22;26030;51.164;17.100;2022-09-03T15:23:47;24.20;52.50
40323;DHT22;26030;51.164;17.100;2022-09-03T15:39:56;24.10;52.60
40323;DHT22;26030;51.164;17.100;2022-09-03T15:45:06;24.10;52.80
40323;DHT22;26030;51.164;17.100;2022-09-03T16:00:49;24.10;52.90
40323;DHT22;26030;51.164;17.100;2022-09-03T16:05:59;24.10;53.00
40323;DHT22;26030;51.164;17.100;2022-09-03T16:16:22;24.00;53.40
40323;DHT22;26030;51.164;17.100;2022-09-03T16:21:50;24.00;53.80
40323;DHT22;26030;51.164;17.100;2022-09-03T16:43:33;24.00;53.20
40323;DHT22;26030;51.164;17.100;2022-09-03T17:00:16;24.00;53.40
40323;DHT22;26030;51.164;17.100;2022-09-03T17:11:49;23.90;53.80
40323;DHT22;26030;51.164;17.100;2022-09-03T17:27:49;23.90;53.60
40323;DHT22;26030;51.164;17.100;2022-09-03T17:55:11;23.80;54.30
40323;DHT22;26030;51.164;17.100;2022-09-03T18:00:32;23.50;53.30
40323;DHT22;26030;51.164;17.100;2022-09-03T18:05:52;23.30;53.30
40323;DHT22;26030;51.164;17.100;2022-09-03T18:11:13;23.20;53.80
40323;DHT22;26030;51.164;17.100;2022-09-03T18:16:25;23.10;53.70
40323;DHT22;26030;51.164;17.100;2022-09-03T18:21:35;23.10;54.30
40323;DHT22;26030;51.164;17.100;2022-09-03T18:27:26;23.00;54.10
40323;DHT22;26030;51.164;17.100;2022-09-03T18:32:50;22.90;53.90
40323;DHT22;26030;51.164;17.100;2022-09-03T18:44:23;22.80;54.10
40323;DHT22;26030;51.164;17.100;2022-09-03T18:56:27;22.70;54.40
40323;DHT22;26030;51.164;17.100;2022-09-03T19:02:00;22.60;54.60
40323;DHT22;26030;51.164;17.100;2022-09-03T19:13:33;22.60;55.10
40323;DHT22;26030;51.164;17.100;2022-09-03T19:24:47;22.60;55.00
40323;DHT22;26030;51.164;17.100;2022-09-03T19:30:18;22.60;55.30
40323;DHT22;26030;51.164;17.100;2022-09-03T19:41:47;22.60;54.70
40323;DHT22;26030;51.164;17.100;2022-09-03T19:53:10;23.00;54.90
40323;DHT22;26030;51.164;17.100;2022-09-03T19:58:44;23.10;54.90
40323;DHT22;26030;51.164;17.100;2022-09-03T20:04:12;23.10;55.00
40323;DHT22;26030;51.164;17.100;2022-09-03T20:09:39;23.10;55.80
40323;DHT22;26030;51.164;17.100;2022-09-03T20:15:16;23.20;55.60
40323;DHT22;26030;51.164;17.100;2022-09-03T20:20:33;23.10;55.70
40323;DHT22;26030;51.164;17.100;2022-09-03T20:31:30;23.20;56.60
40323;DHT22;26030;51.164;17.100;2022-09-03T20:37:03;23.30;57.60
40323;DHT22;26030;51.164;17.100;2022-09-03T20:42:19;23.30;58.20
40323;DHT22;26030;51.164;17.100;2022-09-03T21:15:08;23.40;61.10
40323;DHT22;26030;51.164;17.100;2022-09-03T21:25:38;23.40;61.30
40323;DHT22;26030;51.164;17.100;2022-09-03T21:30:49;23.40;61.00
40323;DHT22;26030;51.164;17.100;2022-09-03T21:36:11;23.50;61.50
40323;DHT22;26030;51.164;17.100;2022-09-03T21:41:43;23.40;60.80
40323;DHT22;26030;51.164;17.100;2022-09-03T21:46:57;23.50;61.00
40323;DHT22;26030;51.164;17.100;2022-09-03T21:52:07;23.50;61.10
40323;DHT22;26030;51.164;17.100;2022-09-03T22:02:54;23.40;61.20
40323;DHT22;26030;51.164;17.100;2022-09-03T22:08:10;23.40;61.40
40323;DHT22;26030;51.164;17.100;2022-09-03T22:13:42;23.40;61.00
40323;DHT22;26030;51.164;17.100;2022-09-03T22:19:01;23.50;61.10
40323;DHT22;26030;51.164;17.100;2022-09-03T22:29:37;23.40;60.80
40323;DHT22;26030;51.164;17.100;2022-09-03T22:40:16;23.40;60.90
40323;DHT22;26030;51.164;17.100;2022-09-03T22:45:26;23.40;60.80
40323;DHT22;26030;51.164;17.100;2022-09-03T22:50:57;23.40;60.70
40323;DHT22;26030;51.164;17.100;2022-09-03T22:56:12;23.50;60.70
40323;DHT22;26030;51.164;17.100;2022-09-03T23:01:22;23.50;62.00
40323;DHT22;26030;51.164;17.100;2022-09-03T23:06:33;23.50;62.00
40323;DHT22;26030;51.164;17.100;2022-09-03T23:11:43;23.40;61.10
40323;DHT22;26030;51.164;17.100;2022-09-03T23:16:59;23.40;61.00
40323;DHT22;26030;51.164;17.100;2022-09-03T23:22:11;23.40;60.80
40323;DHT22;26030;51.164;17.100;2022-09-03T23:27:24;23.40;60.80
40323;DHT22;26030;51.164;17.100;2022-09-03T23:32:33;23.30;60.70
40323;DHT22;26030;51.164;17.100;2022-09-03T23:43:09;23.30;61.00
